Estación Meteorológica Peña el Pijo (Robertgarden) [ 11/12/18 21:50:54 CET ]

Fecha Hora Presion(HPa) Temp (°C) Humedad % Rocio (°C) Viento ( m/s) Direccion Lluvia 1Hora(mm) Lluvia 24H(mm) LLuvia Total(mm)
2018-Mar-28 01:01:38 1013.800 6.9 71 2.0         182.85
2018-Mar-28 02:01:43 1013.600 5.9 73 1.4         182.85
2018-Mar-28 03:01:44 1013.100 5.6 75 1.5         182.85
2018-Mar-28 04:01:39 1012.300 5.3 75 1.2         182.85
2018-Mar-28 05:01:41 1011.900 5.4 77 1.7         182.85
2018-Mar-28 06:01:44 1011.600 5.5 78 1.9         182.85
2018-Mar-28 07:01:36 1011.600 4.9 79 1.5         182.85
2018-Mar-28 08:01:46 1011.200 4.1 80 1.0         182.85
2018-Mar-28 09:01:53 1011.100 4.5 83 1.8         182.85
2018-Mar-28 10:01:26 1010.600 11.9 77 8.0         182.85
2018-Mar-28 11:01:42 1010.500 17.8 51 7.5         182.85
2018-Mar-28 12:01:45 1010.100 21.3 35 5.1         182.85
2018-Mar-28 13:01:56 1009.400 22.5 32 4.9 2.0 NNE     182.85
2018-Mar-28 14:01:47 1008.300 23.1 27 2.9         182.85
2018-Mar-28 15:01:42 1007.700 24.4 27 4.0         182.85
2018-Mar-28 16:02:22 1006.800 24.8 23 2.1         182.85
2018-Mar-28 17:01:33 1006.100 24.4 24 2.3         182.85
2018-Mar-28 18:01:52 1005.600 22.5 28 3.0         182.85
2018-Mar-28 19:02:09 1005.500 20.5 30 2.3         182.85
2018-Mar-28 20:01:46 1005.600 16.8 33 0.3         182.85
2018-Mar-28 21:01:48 1005.900 13.3 42 0.6         182.85
2018-Mar-28 22:01:34 1006.400 12.9 50 2.7         182.85
2018-Mar-28 23:01:49 1006.400 12.1 53 2.8         182.85

Temperatura Máxima:24°    Temperatura Mínima:
Presión Máxima:1013.800 Hpa    Presión Mínima:1005.500 Hpa


Volver